sensor_id;sensor_type;location;lat;lon;timestamp;P1;durP1;ratioP1;P2;durP2;ratioP2
44068;SDS011;29738;51.234;5.484;2023-09-07T00:00:13;13.90;;;7.50;;
44068;SDS011;29738;51.234;5.484;2023-09-07T00:02:40;17.48;;;8.98;;
44068;SDS011;29738;51.234;5.484;2023-09-07T00:05:06;14.43;;;7.82;;
44068;SDS011;29738;51.234;5.484;2023-09-07T00:07:33;15.65;;;7.93;;
44068;SDS011;29738;51.234;5.484;2023-09-07T00:09:59;16.70;;;8.35;;
44068;SDS011;29738;51.234;5.484;2023-09-07T00:12:26;16.60;;;8.88;;
44068;SDS011;29738;51.234;5.484;2023-09-07T00:14:55;18.02;;;8.38;;
44068;SDS011;29738;51.234;5.484;2023-09-07T00:17:22;15.45;;;7.72;;
44068;SDS011;29738;51.234;5.484;2023-09-07T00:19:48;15.50;;;7.97;;
44068;SDS011;29738;51.234;5.484;2023-09-07T00:22:15;16.30;;;7.57;;
44068;SDS011;29738;51.234;5.484;2023-09-07T00:24:42;15.45;;;8.02;;
44068;SDS011;29738;51.234;5.484;2023-09-07T00:27:08;18.08;;;8.70;;
44068;SDS011;29738;51.234;5.484;2023-09-07T00:29:36;17.20;;;8.85;;
44068;SDS011;29738;51.234;5.484;2023-09-07T00:32:03;15.48;;;8.93;;
44068;SDS011;29738;51.234;5.484;2023-09-07T00:34:29;16.52;;;8.80;;
44068;SDS011;29738;51.234;5.484;2023-09-07T00:36:55;14.65;;;8.02;;
44068;SDS011;29738;51.234;5.484;2023-09-07T00:39:21;18.60;;;8.68;;
44068;SDS011;29738;51.234;5.484;2023-09-07T00:41:47;17.92;;;8.82;;
44068;SDS011;29738;51.234;5.484;2023-09-07T00:44:13;16.48;;;8.68;;
44068;SDS011;29738;51.234;5.484;2023-09-07T00:46:39;19.38;;;9.35;;
44068;SDS011;29738;51.234;5.484;2023-09-07T00:49:04;15.80;;;8.35;;
44068;SDS011;29738;51.234;5.484;2023-09-07T00:51:31;14.15;;;7.10;;
44068;SDS011;29738;51.234;5.484;2023-09-07T00:53:57;13.93;;;8.18;;
44068;SDS011;29738;51.234;5.484;2023-09-07T00:56:25;16.80;;;8.38;;
44068;SDS011;29738;51.234;5.484;2023-09-07T00:58:52;16.38;;;9.23;;
44068;SDS011;29738;51.234;5.484;2023-09-07T01:01:19;15.65;;;8.40;;
44068;SDS011;29738;51.234;5.484;2023-09-07T01:03:47;14.02;;;8.20;;
44068;SDS011;29738;51.234;5.484;2023-09-07T01:06:15;17.40;;;8.73;;
44068;SDS011;29738;51.234;5.484;2023-09-07T01:08:51;15.30;;;8.75;;
44068;SDS011;29738;51.234;5.484;2023-09-07T01:11:21;15.07;;;8.52;;
44068;SDS011;29738;51.234;5.484;2023-09-07T01:13:52;18.67;;;9.00;;
44068;SDS011;29738;51.234;5.484;2023-09-07T01:16:19;14.52;;;8.27;;
44068;SDS011;29738;51.234;5.484;2023-09-07T01:18:46;17.75;;;8.60;;
44068;SDS011;29738;51.234;5.484;2023-09-07T01:21:12;15.95;;;8.25;;
44068;SDS011;29738;51.234;5.484;2023-09-07T01:23:42;14.52;;;8.48;;
44068;SDS011;29738;51.234;5.484;2023-09-07T01:26:10;15.32;;;8.07;;
44068;SDS011;29738;51.234;5.484;2023-09-07T01:28:36;17.20;;;9.55;;
44068;SDS011;29738;51.234;5.484;2023-09-07T01:31:03;19.23;;;10.75;;
44068;SDS011;29738;51.234;5.484;2023-09-07T01:33:29;19.13;;;10.35;;
44068;SDS011;29738;51.234;5.484;2023-09-07T01:35:55;20.17;;;9.65;;
44068;SDS011;29738;51.234;5.484;2023-09-07T01:38:21;22.85;;;10.85;;
44068;SDS011;29738;51.234;5.484;2023-09-07T01:40:47;19.98;;;10.65;;
44068;SDS011;29738;51.234;5.484;2023-09-07T01:43:13;20.52;;;10.75;;
44068;SDS011;29738;51.234;5.484;2023-09-07T01:45:39;14.27;;;8.45;;
44068;SDS011;29738;51.234;5.484;2023-09-07T01:48:08;18.63;;;9.70;;
44068;SDS011;29738;51.234;5.484;2023-09-07T01:50:36;14.30;;;8.00;;
44068;SDS011;29738;51.234;5.484;2023-09-07T01:53:02;17.25;;;8.38;;
44068;SDS011;29738;51.234;5.484;2023-09-07T01:55:31;17.95;;;9.75;;
44068;SDS011;29738;51.234;5.484;2023-09-07T01:57:57;18.52;;;9.15;;
44068;SDS011;29738;51.234;5.484;2023-09-07T02:00:23;17.60;;;9.18;;
44068;SDS011;29738;51.234;5.484;2023-09-07T02:02:49;20.77;;;9.93;;
44068;SDS011;29738;51.234;5.484;2023-09-07T02:05:14;21.50;;;9.55;;
44068;SDS011;29738;51.234;5.484;2023-09-07T02:07:41;18.80;;;10.43;;
44068;SDS011;29738;51.234;5.484;2023-09-07T02:10:08;18.95;;;10.73;;
44068;SDS011;29738;51.234;5.484;2023-09-07T02:12:34;17.55;;;10.15;;
44068;SDS011;29738;51.234;5.484;2023-09-07T02:15:01;18.92;;;9.75;;
44068;SDS011;29738;51.234;5.484;2023-09-07T02:17:28;17.55;;;9.27;;
44068;SDS011;29738;51.234;5.484;2023-09-07T02:19:55;18.60;;;9.55;;
44068;SDS011;29738;51.234;5.484;2023-09-07T02:22:21;19.35;;;9.70;;
44068;SDS011;29738;51.234;5.484;2023-09-07T02:24:49;20.67;;;10.48;;
44068;SDS011;29738;51.234;5.484;2023-09-07T02:27:18;21.25;;;10.02;;
44068;SDS011;29738;51.234;5.484;2023-09-07T02:29:44;19.90;;;11.40;;
44068;SDS011;29738;51.234;5.484;2023-09-07T02:32:10;21.77;;;11.77;;
44068;SDS011;29738;51.234;5.484;2023-09-07T02:34:36;21.50;;;11.60;;
44068;SDS011;29738;51.234;5.484;2023-09-07T02:37:02;22.50;;;10.93;;
44068;SDS011;29738;51.234;5.484;2023-09-07T02:54:09;17.95;;;9.68;;
44068;SDS011;29738;51.234;5.484;2023-09-07T06:00:52;16.88;;;9.90;;
44068;SDS011;29738;51.234;5.484;2023-09-07T07:22:34;20.42;;;10.75;;
44068;SDS011;29738;51.234;5.484;2023-09-07T07:25:03;28.10;;;9.77;;
44068;SDS011;29738;51.234;5.484;2023-09-07T07:27:33;19.65;;;10.52;;
44068;SDS011;29738;51.234;5.484;2023-09-07T07:30:10;16.75;;;10.02;;
44068;SDS011;29738;51.234;5.484;2023-09-07T07:32:42;20.42;;;10.32;;
44068;SDS011;29738;51.234;5.484;2023-09-07T07:35:12;15.23;;;9.05;;
44068;SDS011;29738;51.234;5.484;2023-09-07T07:37:51;15.98;;;9.07;;
44068;SDS011;29738;51.234;5.484;2023-09-07T11:38:12;8.23;;;5.43;;
44068;SDS011;29738;51.234;5.484;2023-09-07T11:40:41;10.60;;;5.78;;
44068;SDS011;29738;51.234;5.484;2023-09-07T13:43:58;8.85;;;5.45;;
44068;SDS011;29738;51.234;5.484;2023-09-07T14:49:31;8.82;;;5.15;;
44068;SDS011;29738;51.234;5.484;2023-09-07T14:51:57;10.00;;;5.63;;
44068;SDS011;29738;51.234;5.484;2023-09-07T14:54:25;9.32;;;5.60;;
44068;SDS011;29738;51.234;5.484;2023-09-07T14:56:51;9.00;;;5.55;;
44068;SDS011;29738;51.234;5.484;2023-09-07T14:59:17;8.60;;;5.25;;
44068;SDS011;29738;51.234;5.484;2023-09-07T15:01:43;7.72;;;5.22;;
44068;SDS011;29738;51.234;5.484;2023-09-07T15:04:08;9.25;;;5.57;;
44068;SDS011;29738;51.234;5.484;2023-09-07T15:06:34;7.60;;;5.05;;
44068;SDS011;29738;51.234;5.484;2023-09-07T15:09:02;8.63;;;5.63;;
44068;SDS011;29738;51.234;5.484;2023-09-07T15:11:29;9.70;;;5.53;;
44068;SDS011;29738;51.234;5.484;2023-09-07T15:13:55;8.05;;;5.43;;
44068;SDS011;29738;51.234;5.484;2023-09-07T15:16:21;8.77;;;5.60;;
44068;SDS011;29738;51.234;5.484;2023-09-07T15:18:50;11.27;;;5.85;;
44068;SDS011;29738;51.234;5.484;2023-09-07T16:08:46;9.10;;;5.07;;
44068;SDS011;29738;51.234;5.484;2023-09-07T16:11:12;10.07;;;5.82;;
44068;SDS011;29738;51.234;5.484;2023-09-07T16:13:38;8.77;;;5.57;;
44068;SDS011;29738;51.234;5.484;2023-09-07T16:16:05;10.77;;;5.50;;
44068;SDS011;29738;51.234;5.484;2023-09-07T16:18:34;11.00;;;5.53;;
44068;SDS011;29738;51.234;5.484;2023-09-07T17:20:11;33.80;;;15.55;;
44068;SDS011;29738;51.234;5.484;2023-09-07T17:22:38;9.68;;;6.38;;
44068;SDS011;29738;51.234;5.484;2023-09-07T17:25:17;11.43;;;6.85;;
44068;SDS011;29738;51.234;5.484;2023-09-07T17:28:00;9.52;;;6.55;;
44068;SDS011;29738;51.234;5.484;2023-09-07T19:41:08;11.50;;;6.63;;
44068;SDS011;29738;51.234;5.484;2023-09-07T19:43:33;13.00;;;6.32;;
44068;SDS011;29738;51.234;5.484;2023-09-07T19:45:59;11.13;;;6.72;;
44068;SDS011;29738;51.234;5.484;2023-09-07T19:48:25;14.35;;;7.35;;
44068;SDS011;29738;51.234;5.484;2023-09-07T19:50:51;12.10;;;7.28;;
44068;SDS011;29738;51.234;5.484;2023-09-07T19:53:16;10.55;;;6.25;;
44068;SDS011;29738;51.234;5.484;2023-09-07T19:55:42;11.15;;;6.65;;
44068;SDS011;29738;51.234;5.484;2023-09-07T19:58:08;11.48;;;6.50;;
44068;SDS011;29738;51.234;5.484;2023-09-07T20:00:35;11.38;;;6.80;;
44068;SDS011;29738;51.234;5.484;2023-09-07T20:48:33;14.82;;;6.40;;
44068;SDS011;29738;51.234;5.484;2023-09-07T20:50:59;11.05;;;6.75;;
44068;SDS011;29738;51.234;5.484;2023-09-07T20:53:31;10.18;;;6.05;;
44068;SDS011;29738;51.234;5.484;2023-09-07T20:55:57;12.30;;;6.60;;
44068;SDS011;29738;51.234;5.484;2023-09-07T20:58:28;10.77;;;6.25;;
44068;SDS011;29738;51.234;5.484;2023-09-07T21:01:01;11.63;;;6.85;;
44068;SDS011;29738;51.234;5.484;2023-09-07T21:03:35;11.98;;;7.25;;
44068;SDS011;29738;51.234;5.484;2023-09-07T21:06:07;14.32;;;6.43;;
44068;SDS011;29738;51.234;5.484;2023-09-07T21:22:02;11.05;;;6.65;;
44068;SDS011;29738;51.234;5.484;2023-09-07T21:24:34;12.55;;;7.03;;
44068;SDS011;29738;51.234;5.484;2023-09-07T21:27:19;14.35;;;7.00;;
44068;SDS011;29738;51.234;5.484;2023-09-07T22:33:38;15.18;;;7.05;;
44068;SDS011;29738;51.234;5.484;2023-09-07T22:36:08;11.73;;;6.97;;
44068;SDS011;29738;51.234;5.484;2023-09-07T22:38:56;13.52;;;8.30;;
44068;SDS011;29738;51.234;5.484;2023-09-07T22:41:24;15.38;;;8.43;;
44068;SDS011;29738;51.234;5.484;2023-09-07T22:43:55;14.65;;;8.32;;
44068;SDS011;29738;51.234;5.484;2023-09-07T22:46:22;14.35;;;7.78;;
44068;SDS011;29738;51.234;5.484;2023-09-07T22:49:14;15.07;;;7.45;;
